Time;durP1;ratioP1;P1;durP2;ratioP2;P2;SDS_P1;SDS_P2;PMS_P1;PMS_P2;Temp;Humidity;BMP_temperature;BMP_pressure;BME280_temperature;BME280_humidity;BME280_pressure;Samples;Min_cycle;Max_cycle;Signal;HPM_P1;HPM_P2
2023/03/20 00:02:39;;;;;;;3.80;3.50;;;;;;;13.79;48.25;100102.81;10298756;28;20924;-70
2023/03/20 00:07:41;;;;;;;3.57;2.73;;;;;;;11.57;51.21;100078.34;10304837;28;20237;-69
2023/03/20 00:12:44;;;;;;;3.27;2.97;;;;;;;13.56;48.43;100100.38;10317459;28;20226;-69
2023/03/20 00:17:46;;;;;;;2.90;2.70;;;;;;;13.59;48.25;100107.25;10318907;28;20720;-67
2023/03/20 00:22:49;;;;;;;3.50;3.20;;;;;;;12.66;49.57;100097.31;10317843;28;20636;-69
2023/03/20 00:27:50;;;;;;;3.43;3.00;;;;;;;13.17;50.07;100112.47;10320080;28;20242;-67
2023/03/20 00:32:52;;;;;;;4.43;2.70;;;;;;;13.89;48.41;100129.38;10312572;28;20788;-67
2023/03/20 00:37:56;;;;;;;3.57;3.20;;;;;;;13.00;48.38;100101.16;10315356;28;20337;-70
2023/03/20 00:43:00;;;;;;;3.20;3.00;;;;;;;12.77;49.06;100120.13;10318683;28;20241;-69
2023/03/20 00:48:02;;;;;;;3.20;2.90;;;;;;;14.64;46.64;100186.06;10317631;28;20249;-69
2023/03/20 00:53:05;;;;;;;2.80;2.60;;;;;;;13.09;47.97;100101.84;10318215;28;20616;-67
2023/03/20 00:58:09;;;;;;;2.90;2.70;;;;;;;12.71;49.24;100102.13;10316290;28;20238;-69
2023/03/20 01:03:14;;;;;;;3.00;2.70;;;;;;;14.09;47.35;100148.34;10311079;28;20242;-67
2023/03/20 01:08:21;;;;;;;3.10;2.60;;;;;;;13.61;48.15;100124.81;10313753;28;20592;-67
2023/03/20 01:13:24;;;;;;;5.00;3.10;;;;;;;14.10;47.28;100151.84;10314410;28;20688;-67
2023/03/20 01:18:26;;;;;;;3.70;3.03;;;;;;;13.82;47.18;100129.31;10318174;28;20252;-67
2023/03/20 01:23:28;;;;;;;4.20;3.50;;;;;;;13.01;49.34;100134.22;10315061;28;20234;-67
2023/03/20 01:28:30;;;;;;;3.07;2.87;;;;;;;13.37;48.86;100127.97;10316429;28;20261;-67
2023/03/20 01:33:31;;;;;;;3.70;3.27;;;;;;;14.16;46.92;100165.34;10311405;28;20238;-67
2023/03/20 01:38:33;;;;;;;4.00;3.63;;;;;;;13.46;48.21;100130.31;10316117;28;20241;-67
2023/03/20 01:43:35;;;;;;;4.10;3.73;;;;;;;12.58;49.20;100123.47;10315135;28;20244;-69
2023/03/20 01:48:49;;;;;;;4.60;4.20;;;;;;;12.09;50.39;100116.84;10318491;28;20230;-70
2023/03/20 01:53:57;;;;;;;4.83;4.23;;;;;;;13.62;47.94;100150.69;10315200;28;20226;-67
2023/03/20 01:59:14;;;;;;;4.20;3.90;;;;;;;13.95;47.35;100160.88;10315131;28;20661;-67
2023/03/20 02:04:19;;;;;;;5.90;3.97;;;;;;;13.52;47.54;100134.09;10316293;28;20236;-67
2023/03/20 02:09:21;;;;;;;6.00;4.30;;;;;;;12.72;49.23;100163.69;10312477;28;20230;-67
2023/03/20 02:14:23;;;;;;;5.47;4.30;;;;;;;10.88;52.69;100041.84;10315632;28;20226;-67
2023/03/20 02:19:43;;;;;;;4.60;4.20;;;;;;;10.97;53.65;100104.19;10312691;28;20938;-67
2023/03/20 02:25:04;;;;;;;5.53;4.77;;;;;;;12.31;50.57;100152.63;10313430;28;20237;-68
2023/03/20 02:30:46;;;;;;;7.60;5.10;;;;;;;13.29;49.14;100164.72;10314391;28;20237;-67
2023/03/20 02:36:17;;;;;;;7.07;4.87;;;;;;;14.62;45.83;100184.59;10314879;28;20221;-70
2023/03/20 02:41:35;;;;;;;5.37;4.80;;;;;;;13.41;48.25;100161.47;10310857;28;20251;-68
2023/03/20 02:47:00;;;;;;;5.80;5.10;;;;;;;13.06;47.85;100138.00;10311918;28;20678;-70
2023/03/20 02:52:09;;;;;;;6.43;5.57;;;;;;;13.29;48.23;100170.09;10315706;28;20578;-70
2023/03/20 02:57:44;;;;;;;6.73;5.83;;;;;;;13.92;46.76;100180.09;10319229;28;20241;-68
2023/03/20 03:02:53;;;;;;;8.00;6.67;;;;;;;13.08;48.74;100170.06;10312539;28;20253;-69
2023/03/20 03:07:59;;;;;;;6.93;6.23;;;;;;;12.29;49.85;100171.59;10313256;28;20786;-70
2023/03/20 03:13:03;;;;;;;6.97;6.27;;;;;;;13.41;48.18;100162.34;10314946;28;20240;-69
2023/03/20 03:18:10;;;;;;;8.83;7.10;;;;;;;12.07;50.22;100151.09;10308149;28;20713;-70
2023/03/20 03:23:39;;;;;;;8.50;7.30;;;;;;;12.32;50.85;100189.19;10313710;28;20230;-70
2023/03/20 03:28:49;;;;;;;9.23;7.43;;;;;;;14.28;47.24;100227.53;10313404;28;20624;-70
2023/03/20 03:33:55;;;;;;;7.93;7.13;;;;;;;11.55;52.01;100179.56;10310655;28;20237;-67
2023/03/20 03:38:57;;;;;;;6.87;6.17;;;;;;;11.44;52.15;100167.44;10312277;28;20237;-69
2023/03/20 03:44:04;;;;;;;8.97;7.23;;;;;;;10.72;52.56;100108.88;10312469;28;20719;-70
2023/03/20 03:49:09;;;;;;;8.00;6.73;;;;;;;11.07;53.81;100161.03;10319242;28;20241;-70
2023/03/20 03:54:17;;;;;;;8.60;6.57;;;;;;;12.77;50.12;100175.72;10318995;28;20241;-69
2023/03/20 03:59:40;;;;;;;9.30;8.03;;;;;;;11.35;52.41;100173.84;10318736;28;20240;-70
2023/03/20 04:04:46;;;;;;;8.40;7.47;;;;;;;11.03;53.37;100176.59;10296526;28;20248;-67
2023/03/20 04:09:48;;;;;;;8.67;7.77;;;;;;;11.72;50.84;100180.28;10293681;28;20393;-70
2023/03/20 04:14:50;;;;;;;7.97;6.87;;;;;;;11.63;51.87;100209.81;10320639;28;20745;-70
2023/03/20 04:19:51;;;;;;;8.30;7.50;;;;;;;13.55;48.41;100253.81;10318048;28;20230;-67
2023/03/20 04:24:53;;;;;;;9.43;8.43;;;;;;;12.72;49.57;100229.97;10319721;28;20233;-70
2023/03/20 04:29:55;;;;;;;9.50;8.57;;;;;;;13.53;48.52;100275.56;10316192;28;20241;-69
2023/03/20 04:34:57;;;;;;;9.63;8.57;;;;;;;14.00;47.84;100298.31;10316315;28;20252;-71
2023/03/20 04:39:58;;;;;;;10.13;9.00;;;;;;;13.13;48.65;100248.22;10318808;28;20304;-70
2023/03/20 04:45:00;;;;;;;9.50;8.47;;;;;;;13.86;47.66;100283.09;10317591;28;20230;-70
2023/03/20 04:50:02;;;;;;;9.53;8.43;;;;;;;11.66;51.92;100224.72;10314640;28;20238;-70
2023/03/20 04:55:04;;;;;;;9.43;8.43;;;;;;;12.24;50.02;100213.44;10286889;28;20604;-71
2023/03/20 05:00:06;;;;;;;10.40;8.93;;;;;;;13.22;49.95;100265.88;10276834;28;20327;-70
2023/03/20 05:05:08;;;;;;;10.30;9.13;;;;;;;13.48;48.99;100284.19;10276297;28;20592;-70
2023/03/20 05:10:10;;;;;;;10.27;9.17;;;;;;;12.36;49.67;100217.31;10306948;28;20238;-70
2023/03/20 05:15:12;;;;;;;11.93;9.63;;;;;;;11.83;50.63;100232.59;10318162;28;20677;-70
2023/03/20 05:20:14;;;;;;;10.03;9.03;;;;;;;13.30;48.52;100273.03;10315895;28;20304;-71
2023/03/20 05:25:16;;;;;;;12.10;9.53;;;;;;;13.51;47.67;100285.66;10319039;28;20229;-71
2023/03/20 05:30:18;;;;;;;11.10;9.90;;;;;;;13.03;48.69;100256.59;10317690;28;20329;-70
2023/03/20 05:35:20;;;;;;;11.83;9.93;;;;;;;12.77;49.33;100257.09;10316448;28;20230;-71
2023/03/20 05:40:24;;;;;;;13.10;9.67;;;;;;;12.93;49.10;100250.69;10318585;28;20285;-71
2023/03/20 05:45:26;;;;;;;11.83;10.07;;;;;;;13.15;48.59;100262.31;10316530;28;20240;-71
2023/03/20 05:50:27;;;;;;;11.80;10.13;;;;;;;13.07;49.06;100271.28;10316720;28;20238;-71
2023/03/20 05:55:29;;;;;;;12.67;10.50;;;;;;;13.83;47.96;100321.97;10316837;28;20226;-71
2023/03/20 06:00:30;;;;;;;12.70;10.73;;;;;;;12.80;48.26;100251.34;10318494;28;20233;-69
2023/03/20 06:05:33;;;;;;;12.93;10.47;;;;;;;13.90;47.21;100329.25;10314833;28;20249;-69
2023/03/20 06:10:35;;;;;;;12.33;10.33;;;;;;;13.33;48.00;100304.91;10311386;28;20320;-69
2023/03/20 06:15:37;;;;;;;13.70;10.27;;;;;;;13.60;47.61;100307.91;10318683;28;20230;-67
2023/03/20 06:20:39;;;;;;;13.80;10.93;;;;;;;13.85;47.20;100336.06;10318218;28;20234;-66
2023/03/20 06:25:41;;;;;;;14.17;10.53;;;;;;;13.45;47.20;100307.94;10315120;28;20281;-69
2023/03/20 06:30:43;;;;;;;16.47;11.17;;;;;;;13.63;47.57;100319.09;10311182;28;20240;-69
2023/03/20 06:35:46;;;;;;;12.10;10.23;;;;;;;13.14;48.26;100309.00;10316083;28;20607;-66
2023/03/20 06:40:47;;;;;;;13.93;11.70;;;;;;;12.97;48.75;100299.50;10316160;28;20258;-69
2023/03/20 06:45:49;;;;;;;13.37;10.80;;;;;;;13.98;46.90;100362.22;10313260;28;20304;-69
2023/03/20 06:50:51;;;;;;;14.17;11.47;;;;;;;13.02;48.56;100326.63;10314551;28;20304;-69
2023/03/20 06:55:53;;;;;;;14.90;12.13;;;;;;;13.22;47.85;100330.38;10315054;28;20257;-69
2023/03/20 07:00:56;;;;;;;15.50;12.80;;;;;;;13.46;47.58;100342.69;10316117;28;20237;-69
2023/03/20 07:05:57;;;;;;;13.70;10.90;;;;;;;12.95;47.46;100306.91;10314580;28;21006;-70
2023/03/20 07:11:00;;;;;;;13.17;10.63;;;;;;;13.74;47.35;100349.19;10315341;28;20621;-69
2023/03/20 07:16:02;;;;;;;14.23;10.53;;;;;;;13.56;47.19;100336.16;10311320;28;20242;-69
2023/03/20 07:21:06;;;;;;;12.90;10.30;;;;;;;13.03;48.79;100315.69;10318622;28;20296;-67
2023/03/20 07:26:08;;;;;;;12.93;10.23;;;;;;;12.88;49.12;100307.66;10322196;28;20233;-69
2023/03/20 07:31:22;;;;;;;12.50;9.83;;;;;;;13.09;48.36;100298.84;10324218;28;20264;-69
2023/03/20 07:36:24;;;;;;;11.73;10.03;;;;;;;11.97;49.17;100248.72;10321306;28;20238;-70
2023/03/20 07:41:25;;;;;;;13.77;10.80;;;;;;;13.79;47.61;100342.19;10321196;28;20232;-69
2023/03/20 07:46:27;;;;;;;13.20;10.00;;;;;;;12.98;49.07;100295.81;10321638;28;20234;-69
2023/03/20 07:51:29;;;;;;;12.27;10.63;;;;;;;12.45;48.95;100264.50;10320257;28;20238;-69
2023/03/20 07:56:31;;;;;;;12.53;9.90;;;;;;;12.43;49.55;100266.53;10320178;28;20236;-69
2023/03/20 08:01:33;;;;;;;12.57;10.57;;;;;;;13.43;48.07;100320.72;10320299;28;20245;-69
2023/03/20 08:06:35;;;;;;;12.30;10.67;;;;;;;13.25;47.88;100319.25;10322954;28;20242;-69
2023/03/20 08:11:37;;;;;;;12.33;10.13;;;;;;;13.07;47.80;100318.84;10321520;28;20650;-70
2023/03/20 08:16:38;;;;;;;13.90;10.37;;;;;;;12.62;49.07;100328.78;10320491;28;20233;-69
2023/03/20 08:21:40;;;;;;;13.10;9.70;;;;;;;13.77;47.34;100379.22;10319888;28;20256;-69
2023/03/20 08:26:43;;;;;;;9.60;7.70;;;;;;;13.69;47.31;100367.75;10321653;28;20624;-69
2023/03/20 08:31:45;;;;;;;9.10;7.97;;;;;;;13.02;48.04;100348.13;10319299;28;20744;-69
2023/03/20 08:36:46;;;;;;;10.70;8.90;;;;;;;13.65;47.12;100373.50;10322591;28;20236;-69
2023/03/20 08:41:48;;;;;;;8.63;7.53;;;;;;;12.03;49.07;100311.56;10316840;28;20245;-69
2023/03/20 08:46:50;;;;;;;11.40;8.00;;;;;;;12.46;49.08;100338.63;10319684;28;20262;-69
2023/03/20 08:51:51;;;;;;;9.60;7.57;;;;;;;13.54;47.45;100386.63;10318837;28;20232;-69
2023/03/20 08:56:53;;;;;;;9.37;7.67;;;;;;;13.46;47.17;100377.66;10318269;28;20234;-69
2023/03/20 09:01:55;;;;;;;10.63;7.80;;;;;;;14.28;46.78;100401.66;10320396;28;20249;-69
2023/03/20 09:06:57;;;;;;;10.40;7.97;;;;;;;13.43;47.23;100352.97;10318524;28;20257;-69
2023/03/20 09:11:59;;;;;;;9.33;7.00;;;;;;;12.49;47.54;100303.41;10319035;28;20240;-69
2023/03/20 09:17:02;;;;;;;9.60;7.07;;;;;;;12.66;47.36;100338.13;10317395;28;20241;-69
2023/03/20 09:22:04;;;;;;;9.13;7.20;;;;;;;13.57;46.42;100360.19;10317864;28;20327;-70
2023/03/20 09:27:05;;;;;;;9.70;6.00;;;;;;;13.86;46.45;100374.53;10317936;28;20668;-69
2023/03/20 09:32:10;;;;;;;6.47;5.27;;;;;;;14.19;45.60;100392.91;10317194;28;20230;-70
2023/03/20 09:37:12;;;;;;;7.00;5.50;;;;;;;14.15;44.27;100388.91;10315871;28;20610;-70
2023/03/20 09:42:31;;;;;;;8.43;6.00;;;;;;;11.99;47.47;100324.47;10315560;28;20234;-67
2023/03/20 09:48:03;;;;;;;8.43;5.83;;;;;;;13.64;45.97;100371.84;10317206;28;20238;-70
2023/03/20 09:53:24;;;;;;;7.70;5.57;;;;;;;13.40;45.05;100343.44;10315132;28;20322;-67
2023/03/20 09:58:32;;;;;;;7.97;6.13;;;;;;;14.76;44.44;100408.03;10314090;28;20720;-69
2023/03/20 10:03:55;;;;;;;7.27;5.23;;;;;;;13.55;44.41;100313.84;10318120;28;20234;-69
2023/03/20 10:08:57;;;;;;;7.27;5.53;;;;;;;13.29;43.78;100287.50;10315454;28;20226;-70
2023/03/20 10:14:13;;;;;;;5.97;4.67;;;;;;;14.77;43.02;100368.47;10313683;28;20256;-70
2023/03/20 10:19:23;;;;;;;6.93;5.37;;;;;;;14.93;43.00;100380.78;10317370;28;20238;-70
2023/03/20 10:24:24;;;;;;;7.80;6.33;;;;;;;14.62;42.70;100340.81;10315592;28;20238;-69
2023/03/20 10:30:10;;;;;;;5.60;4.43;;;;;;;15.92;41.35;100403.81;10313215;28;20936;-69
2023/03/20 10:35:36;;;;;;;9.00;5.43;;;;;;;14.98;42.18;100343.31;10270306;28;20636;-70
2023/03/20 10:40:42;;;;;;;5.57;4.37;;;;;;;15.04;42.14;100293.19;10310445;28;20273;-70
2023/03/20 10:45:47;;;;;;;5.80;4.50;;;;;;;15.12;42.16;100307.31;10314898;28;20336;-69
2023/03/20 10:50:53;;;;;;;4.20;3.80;;;;;;;13.61;42.15;100261.97;10315491;28;20825;-69
2023/03/20 10:56:01;;;;;;;5.97;4.60;;;;;;;13.47;43.54;100295.13;10310195;28;20233;-69
2023/03/20 11:06:46;;;;;;;7.90;5.07;;;;;;;10.93;48.21;100357.25;10643144;27;21225;-69
2023/03/20 11:11:51;;;;;;;7.00;5.27;;;;;;;11.79;46.91;100334.03;10567494;28;20230;-69
2023/03/20 11:16:56;;;;;;;6.23;4.90;;;;;;;13.21;44.59;100336.81;10563818;28;20215;-69
2023/03/20 11:22:00;;;;;;;6.00;4.10;;;;;;;11.71;46.15;100324.22;10560732;28;20222;-67
2023/03/20 11:27:24;;;;;;;6.50;5.10;;;;;;;11.85;45.40;100294.97;10557444;28;20614;-69
2023/03/20 11:32:31;;;;;;;7.37;5.53;;;;;;;13.40;44.06;100299.63;10558186;28;20648;-70
2023/03/20 11:37:34;;;;;;;7.50;6.20;;;;;;;13.73;44.12;100310.69;10561199;28;20226;-69
2023/03/20 11:42:36;;;;;;;7.70;5.80;;;;;;;14.44;42.70;100328.66;10565153;28;20218;-70
2023/03/20 11:47:38;;;;;;;9.33;6.83;;;;;;;13.83;43.52;100295.06;10556850;28;20223;-70
2023/03/20 11:52:40;;;;;;;10.70;8.73;;;;;;;13.65;43.53;100295.53;10561526;28;20343;-69
2023/03/20 11:57:43;;;;;;;6.30;5.07;;;;;;;12.05;44.74;100287.25;10573646;28;20226;-69
2023/03/20 12:02:48;;;;;;;6.50;5.13;;;;;;;13.33;43.13;100293.31;10564051;28;20238;-69
2023/03/20 12:07:51;;;;;;;10.03;7.33;;;;;;;13.93;41.47;100283.13;10567873;28;20282;-69
2023/03/20 12:13:15;;;;;;;9.10;6.03;;;;;;;14.02;41.78;100288.19;10559835;28;20210;-69
2023/03/20 12:18:35;;;;;;;10.90;7.50;;;;;;;14.33;40.90;100283.47;10538072;28;20602;-68
2023/03/20 12:24:19;;;;;;;10.83;6.97;;;;;;;13.82;42.07;100254.91;10532126;28;20230;-69
2023/03/20 12:29:34;;;;;;;11.37;8.03;;;;;;;12.97;41.98;100227.78;10511494;28;20726;-69
2023/03/20 12:34:43;;;;;;;7.13;4.83;;;;;;;14.17;39.95;100236.13;10541455;28;20197;-69
2023/03/20 12:39:51;;;;;;;5.00;3.83;;;;;;;13.88;40.64;100240.66;10531091;28;20231;-69
2023/03/20 12:45:11;;;;;;;9.20;5.00;;;;;;;15.09;40.17;100272.66;10534780;28;20222;-69
2023/03/20 12:50:22;;;;;;;8.23;4.90;;;;;;;13.91;40.42;100226.84;10528658;28;20230;-68
2023/03/20 12:55:53;;;;;;;6.97;4.83;;;;;;;14.96;40.50;100234.88;10538774;28;20202;-69
2023/03/20 13:01:20;;;;;;;6.77;3.93;;;;;;;14.60;39.88;100198.28;10540969;28;20234;-69
2023/03/20 13:06:52;;;;;;;7.17;4.10;;;;;;;15.64;39.26;100220.50;10532237;28;20243;-69
2023/03/20 13:11:56;;;;;;;6.43;3.80;;;;;;;14.92;39.21;100182.44;10523359;28;20770;-69
2023/03/20 13:17:12;;;;;;;4.63;3.60;;;;;;;13.81;41.00;100178.75;10529542;28;20240;-69
2023/03/20 13:22:22;;;;;;;7.17;3.63;;;;;;;14.34;40.26;100156.75;10525942;28;20226;-68
2023/03/20 13:27:39;;;;;;;4.03;3.40;;;;;;;14.21;40.80;100159.38;10527686;28;20326;-69
2023/03/20 13:33:14;;;;;;;4.43;3.33;;;;;;;13.66;40.73;100149.28;10536840;28;20207;-69
2023/03/20 13:38:21;;;;;;;4.80;3.83;;;;;;;14.35;40.37;100142.25;10485510;28;20222;-69
2023/03/20 13:43:47;;;;;;;5.27;3.50;;;;;;;14.69;39.68;100139.66;10523636;28;20269;-70
2023/03/20 13:48:51;;;;;;;4.17;3.50;;;;;;;13.69;40.83;100141.84;10531525;28;20230;-70
2023/03/20 13:54:12;;;;;;;3.50;3.20;;;;;;;14.73;40.08;100101.34;10526373;28;20199;-70
2023/03/20 13:59:42;;;;;;;4.30;3.87;;;;;;;15.63;38.31;100108.25;10523975;28;20214;-70
2023/03/20 14:04:49;;;;;;;3.57;3.10;;;;;;;12.88;40.98;100079.34;10531352;28;21645;-70
2023/03/20 14:09:53;;;;;;;3.93;3.53;;;;;;;13.76;40.13;100099.69;10522973;28;20234;-70
2023/03/20 14:14:57;;;;;;;3.43;2.90;;;;;;;13.71;40.39;100083.31;10521854;28;20221;-71
2023/03/20 14:20:12;;;;;;;3.77;3.13;;;;;;;14.74;39.69;100051.00;10524768;28;20622;-70
2023/03/20 14:25:20;;;;;;;3.17;2.80;;;;;;;14.98;39.34;100076.53;10506803;28;20241;-71
2023/03/20 14:30:30;;;;;;;5.60;3.90;;;;;;;16.31;38.07;100102.47;10527506;28;20230;-70
2023/03/20 14:35:38;;;;;;;4.73;3.40;;;;;;;15.30;38.47;100066.78;10529515;28;20608;-71
2023/03/20 14:40:50;;;;;;;3.70;3.10;;;;;;;14.07;40.02;100084.97;10533523;28;20258;-70
2023/03/20 14:46:13;;;;;;;5.23;3.23;;;;;;;14.68;39.27;100078.78;10528049;28;20279;-70
2023/03/20 14:51:18;;;;;;;4.40;3.40;;;;;;;14.50;39.33;100057.81;10524158;28;20545;-70
2023/03/20 14:56:27;;;;;;;7.00;2.97;;;;;;;15.23;39.69;100041.69;10521342;28;20211;-70
2023/03/20 15:05:34;;;;;;;3.83;3.50;;;;;;;11.96;43.50;100088.00;10548523;27;21281;-69
2023/03/20 15:10:45;;;;;;;5.10;3.97;;;;;;;13.18;42.44;100048.84;10544331;28;20333;-71
2023/03/20 15:15:56;;;;;;;5.83;3.90;;;;;;;13.85;42.71;100055.44;10547817;28;20211;-70
2023/03/20 15:20:58;;;;;;;4.33;3.43;;;;;;;12.27;43.25;100060.94;10541898;28;20864;-68
2023/03/20 15:26:00;;;;;;;4.47;3.93;;;;;;;12.24;44.20;100071.22;10542428;28;20581;-69
2023/03/20 15:31:02;;;;;;;6.00;4.30;;;;;;;12.98;42.64;100067.47;10535218;28;20217;-68
2023/03/20 15:36:16;;;;;;;4.60;3.90;;;;;;;14.55;41.58;100049.94;10535052;28;20682;-70
2023/03/20 15:41:30;;;;;;;4.77;3.47;;;;;;;12.81;42.61;100064.22;10545070;28;20238;-69
2023/03/20 15:46:32;;;;;;;5.50;3.83;;;;;;;13.03;42.14;100057.81;10536749;28;20214;-71
2023/03/20 15:51:34;;;;;;;4.80;4.23;;;;;;;13.45;41.74;100066.00;10546857;28;20222;-71
2023/03/20 15:56:41;;;;;;;6.23;3.83;;;;;;;14.33;41.31;100049.28;10544862;28;20202;-70
2023/03/20 16:01:46;;;;;;;4.00;3.70;;;;;;;13.12;41.98;100042.38;10533254;28;20256;-67
2023/03/20 16:06:56;;;;;;;5.37;4.17;;;;;;;13.04;42.49;100050.56;10537934;28;20249;-71
2023/03/20 16:12:02;;;;;;;4.50;3.63;;;;;;;14.16;41.62;100011.13;10548585;28;20488;-72
2023/03/20 16:17:04;;;;;;;4.83;4.00;;;;;;;13.93;41.40;100024.88;10507839;28;20665;-69
2023/03/20 16:22:14;;;;;;;4.90;3.97;;;;;;;12.88;42.49;100012.22;10507059;28;20219;-70
2023/03/20 16:27:29;;;;;;;5.40;4.13;;;;;;;13.86;41.70;100011.41;10512540;28;20567;-71
2023/03/20 16:32:37;;;;;;;5.60;4.43;;;;;;;14.38;41.38;100023.38;10511574;28;20214;-74
2023/03/20 16:37:48;;;;;;;6.67;4.10;;;;;;;13.43;41.78;100017.81;10518365;28;20325;-72
2023/03/20 16:42:53;;;;;;;6.17;4.07;;;;;;;14.21;41.73;100012.16;10521091;28;20253;-72
2023/03/20 16:48:10;;;;;;;5.13;3.80;;;;;;;13.31;42.60;100023.91;10510211;28;20233;-72
2023/03/20 16:53:18;;;;;;;5.37;3.97;;;;;;;14.07;41.74;100013.19;10515733;28;20203;-71
2023/03/20 16:58:23;;;;;;;7.10;4.57;;;;;;;14.03;42.15;100010.00;10508495;28;20658;-71
2023/03/20 17:03:33;;;;;;;6.03;4.40;;;;;;;13.71;42.06;99992.72;10512279;28;21067;-71
2023/03/20 17:08:40;;;;;;;5.13;4.37;;;;;;;14.31;41.75;100003.72;10514234;28;20224;-70
2023/03/20 17:13:42;;;;;;;5.87;4.53;;;;;;;13.60;41.90;100010.25;10517473;28;20234;-72
2023/03/20 17:18:45;;;;;;;9.63;6.13;;;;;;;14.34;41.28;100022.16;10516006;28;20234;-69
2023/03/20 17:23:47;;;;;;;6.23;4.90;;;;;;;14.46;40.95;100014.31;10511031;28;20583;-72
2023/03/20 17:28:49;;;;;;;7.10;5.00;;;;;;;14.25;41.69;100012.59;10512950;28;20467;-72
2023/03/20 17:33:51;;;;;;;6.70;4.73;;;;;;;13.96;41.86;100014.53;10512732;28;20207;-71
2023/03/20 17:38:54;;;;;;;6.97;5.17;;;;;;;13.37;42.58;100025.84;10510448;28;20309;-73
2023/03/20 17:43:55;;;;;;;5.87;3.90;;;;;;;14.46;41.21;100014.31;10510887;28;20455;-68
2023/03/20 17:49:02;;;;;;;6.43;4.20;;;;;;;14.44;41.31;100021.72;10521088;28;20226;-71
2023/03/20 17:54:04;;;;;;;6.97;4.30;;;;;;;13.38;43.15;100048.97;10518344;28;20207;-72
2023/03/20 17:59:11;;;;;;;8.70;5.37;;;;;;;14.12;42.22;100037.63;10513966;28;20236;-73
2023/03/20 18:04:13;;;;;;;4.17;3.73;;;;;;;14.59;41.21;100033.19;10525210;22;20235;-36
2023/03/20 18:09:15;;;;;;;5.43;4.13;;;;;;;13.78;42.00;100043.84;10518157;28;20203;-38
2023/03/20 18:14:18;;;;;;;6.40;4.93;;;;;;;14.75;40.52;100029.25;10488772;28;20234;-38
2023/03/20 18:19:24;;;;;;;5.77;4.60;;;;;;;13.66;41.43;100030.94;10478595;28;20738;-39
2023/03/20 18:24:26;;;;;;;7.20;4.57;;;;;;;13.84;41.72;100038.50;10480752;28;20237;-37
2023/03/20 18:29:28;;;;;;;5.70;4.67;;;;;;;13.09;42.17;99997.94;10478383;28;20213;-39
2023/03/20 18:34:30;;;;;;;5.30;4.40;;;;;;;14.30;41.50;100034.34;10483862;28;20693;-39
2023/03/20 18:39:31;;;;;;;5.63;4.23;;;;;;;14.10;41.00;100009.22;10484891;28;20285;-36
2023/03/20 18:44:33;;;;;;;5.87;4.40;;;;;;;14.66;40.91;99997.31;10473508;28;20250;-37
2023/03/20 18:49:37;;;;;;;6.17;4.63;;;;;;;14.55;41.10;100002.28;10476842;28;20207;-39
2023/03/20 18:54:39;;;;;;;5.63;4.30;;;;;;;15.42;40.51;100018.44;10473686;28;20220;-36
2023/03/20 18:59:41;;;;;;;5.97;4.80;;;;;;;13.57;42.44;100007.97;10470970;28;20217;-38
2023/03/20 19:04:43;;;;;;;6.17;4.80;;;;;;;12.52;43.45;99982.81;10472701;28;20240;-36
2023/03/20 19:09:44;;;;;;;7.97;5.17;;;;;;;13.32;42.82;100022.91;10477970;28;20212;-36
2023/03/20 19:14:46;;;;;;;7.90;4.33;;;;;;;14.85;40.75;99996.53;10476703;28;20552;-41
2023/03/20 19:19:48;;;;;;;8.40;5.03;;;;;;;14.05;41.75;100034.03;10487237;28;20664;-38
2023/03/20 19:24:50;;;;;;;7.47;5.10;;;;;;;15.30;40.27;100026.34;10470346;28;20275;-36
2023/03/20 19:29:55;;;;;;;10.17;7.47;;;;;;;14.40;41.18;99993.56;10479155;28;20221;-38
2023/03/20 19:34:57;;;;;;;8.63;5.90;;;;;;;14.21;41.72;100038.25;10474534;28;20211;-39
2023/03/20 19:40:36;;;;;;;7.43;4.90;;;;;;;15.17;40.18;100010.19;10478482;28;20289;-38
2023/03/20 19:45:43;;;;;;;7.53;5.83;;;;;;;15.09;39.92;100013.94;10480865;28;20403;-39
2023/03/20 19:50:48;;;;;;;7.23;5.97;;;;;;;14.24;41.64;100012.78;10480690;28;20310;-37
2023/03/20 19:55:50;;;;;;;8.53;6.90;;;;;;;15.31;39.79;99984.03;10490424;28;20208;-36
2023/03/20 20:00:51;;;;;;;6.47;5.53;;;;;;;16.84;37.99;100035.63;10488633;28;20247;-39
2023/03/20 20:06:12;;;;;;;6.63;5.30;;;;;;;16.30;38.71;100000.06;10450733;28;20793;-39
2023/03/20 20:11:17;;;;;;;9.27;6.63;;;;;;;16.01;39.64;99977.97;10436828;28;20220;-39
2023/03/20 20:16:18;;;;;;;19.20;13.30;;;;;;;17.48;38.66;100010.13;10437965;28;20303;-37
2023/03/20 20:21:20;;;;;;;14.03;11.03;;;;;;;16.34;39.96;99941.91;10448629;28;20716;-36
2023/03/20 20:26:42;;;;;;;14.67;11.10;;;;;;;16.23;40.90;99927.22;10443835;28;20682;-36
2023/03/20 20:31:54;;;;;;;11.53;8.10;;;;;;;15.36;41.52;99935.69;10440637;28;20235;-36
2023/03/20 20:36:56;;;;;;;9.77;7.53;;;;;;;15.91;40.07;99929.03;10434839;28;20239;-39
2023/03/20 20:42:19;;;;;;;9.20;6.07;;;;;;;15.15;40.78;99926.03;10443556;28;20235;-39
2023/03/20 20:47:21;;;;;;;8.70;6.60;;;;;;;15.37;40.87;99907.72;10436438;28;20213;-39
2023/03/20 20:52:22;;;;;;;9.70;6.17;;;;;;;15.15;40.22;99912.56;10443260;28;20231;-39
2023/03/20 20:57:24;;;;;;;7.60;5.60;;;;;;;14.03;41.62;99915.00;10445040;28;20215;-39
2023/03/20 21:02:28;;;;;;;8.17;5.87;;;;;;;16.85;38.76;99950.81;10454142;28;20776;-36
2023/03/20 21:07:30;;;;;;;9.67;6.60;;;;;;;16.80;38.46;99941.53;10482878;28;20210;-37
2023/03/20 21:12:32;;;;;;;9.13;6.73;;;;;;;17.14;37.83;99949.31;10489926;28;20720;-39
2023/03/20 21:17:48;;;;;;;9.63;6.87;;;;;;;15.38;39.56;99952.50;10481793;28;20262;-39
2023/03/20 21:23:01;;;;;;;8.20;5.90;;;;;;;16.68;38.52;99954.06;10477334;28;20232;-39
2023/03/20 21:28:03;;;;;;;8.77;5.77;;;;;;;16.50;38.34;99933.25;10487999;28;20290;-39
2023/03/20 21:33:05;;;;;;;7.60;5.93;;;;;;;16.43;38.43;99940.56;10483636;28;20228;-39
2023/03/20 21:38:07;;;;;;;9.80;6.10;;;;;;;16.70;38.31;99948.47;10487072;28;20624;-38
2023/03/20 21:43:28;;;;;;;8.40;5.70;;;;;;;16.38;38.74;99943.09;10486621;28;20315;-39
2023/03/20 21:48:30;;;;;;;8.57;5.80;;;;;;;15.80;39.10;99914.38;10482934;28;20237;-36
2023/03/20 21:53:52;;;;;;;9.60;7.03;;;;;;;15.27;41.17;99918.13;10480900;28;20238;-39
2023/03/20 21:59:13;;;;;;;9.40;6.83;;;;;;;15.89;40.29;99921.16;10476804;28;20673;-37
2023/03/20 22:04:35;;;;;;;8.50;5.97;;;;;;;15.76;39.63;99900.50;10484725;28;20235;-37
2023/03/20 22:09:57;;;;;;;7.80;6.13;;;;;;;14.26;42.10;99886.94;10472734;28;20551;-39
2023/03/20 22:15:19;;;;;;;7.63;6.10;;;;;;;16.67;39.12;99932.69;10489244;28;20653;-39
2023/03/20 22:20:41;;;;;;;8.67;6.17;;;;;;;16.23;39.23;99911.81;10483532;28;20296;-38
2023/03/20 22:26:05;;;;;;;8.43;6.50;;;;;;;16.91;38.32;99921.03;10480891;28;20470;-37
2023/03/20 22:31:27;;;;;;;7.13;6.10;;;;;;;16.83;38.39;99915.09;10478185;28;20239;-38
2023/03/20 22:36:50;;;;;;;9.03;6.67;;;;;;;16.52;38.75;99923.06;10480622;28;20676;-38
2023/03/20 22:42:11;;;;;;;13.70;7.33;;;;;;;16.04;39.87;99912.78;10487858;28;20235;-36
2023/03/20 22:47:34;;;;;;;8.93;6.17;;;;;;;15.82;39.68;99933.88;10482252;28;20669;-37
2023/03/20 22:52:36;;;;;;;8.27;5.57;;;;;;;15.84;39.23;99908.34;10475836;28;20219;-39
2023/03/20 22:57:50;;;;;;;6.80;5.30;;;;;;;15.37;39.95;99933.81;10482630;28;20560;-38
2023/03/20 23:03:08;;;;;;;6.90;4.57;;;;;;;15.54;39.24;99915.28;10476534;28;20642;-38
2023/03/20 23:08:30;;;;;;;5.80;4.63;;;;;;;16.06;38.78;99899.88;10480917;28;20214;-39
2023/03/20 23:13:40;;;;;;;7.43;5.30;;;;;;;14.68;40.21;99885.66;10477256;28;20303;-38
2023/03/20 23:18:42;;;;;;;6.43;5.53;;;;;;;14.61;40.14;99892.09;10485586;28;20212;-38
2023/03/20 23:23:43;;;;;;;7.50;5.10;;;;;;;13.70;41.35;99853.94;10490564;28;20624;-38
2023/03/20 23:28:47;;;;;;;8.13;4.90;;;;;;;15.36;39.50;99899.84;10492583;28;20683;-38
2023/03/20 23:33:54;;;;;;;6.00;4.70;;;;;;;15.65;39.40;99909.28;10489410;28;20223;-40
2023/03/20 23:38:55;;;;;;;5.83;4.63;;;;;;;14.93;39.49;99887.72;10490643;28;20614;-38
2023/03/20 23:43:57;;;;;;;6.87;4.83;;;;;;;14.27;40.99;99913.63;10491383;28;20612;-37